Time;durP1;ratioP1;P1;durP2;ratioP2;P2;SDS_P1;SDS_P2;PMS_P1;PMS_P2;Temp;Humidity;BMP_temperature;BMP_pressure;BME280_temperature;BME280_humidity;BME280_pressure;Samples;Min_cycle;Max_cycle;Signal;HPM_P1;HPM_P2
2021/06/27 00:00:23;;;;;;;0.10;0.10;;;;;;;15.02;79.06;101358.19;5052404;28;20044;-80
2021/06/27 00:02:59;;;;;;;0.15;0.15;;;;;;;14.99;79.64;101367.81;5046368;28;20052;-80
2021/06/27 00:05:36;;;;;;;0.10;0.10;;;;;;;14.99;79.97;101364.25;5047021;28;20386;-80
2021/06/27 00:08:11;;;;;;;0.10;0.10;;;;;;;14.99;79.87;101373.28;5047547;28;20052;-81
2021/06/27 00:10:45;;;;;;;0.17;0.17;;;;;;;14.98;79.03;101363.44;5034046;28;20049;-81
2021/06/27 00:13:14;;;;;;;0.10;0.10;;;;;;;14.98;78.83;101365.38;5045711;28;20493;-81
2021/06/27 00:15:50;;;;;;;0.10;0.10;;;;;;;14.99;78.87;101372.47;5042468;28;20041;-81
2021/06/27 00:18:29;;;;;;;0.10;0.10;;;;;;;14.87;79.41;101359.19;5032642;28;20057;-80
2021/06/27 00:21:00;;;;;;;0.20;0.20;;;;;;;14.66;81.51;101373.09;5034082;28;20049;-81
2021/06/27 00:23:36;;;;;;;0.20;0.20;;;;;;;14.69;81.41;101363.50;5033961;28;20396;-81
2021/06/27 00:26:12;;;;;;;0.10;0.10;;;;;;;14.72;79.86;101362.91;5040261;28;20405;-80
2021/06/27 00:28:47;;;;;;;0.15;0.15;;;;;;;14.64;80.16;101350.69;5043068;28;20079;-80
2021/06/27 00:31:24;;;;;;;0.20;0.20;;;;;;;14.58;80.62;101355.38;5056418;28;20041;-80
2021/06/27 00:33:59;;;;;;;0.10;0.10;;;;;;;14.48;82.10;101358.19;5040925;28;20061;-80
2021/06/27 00:36:34;;;;;;;0.10;0.10;;;;;;;14.47;81.17;101356.56;5042384;28;20048;-82
2021/06/27 00:39:08;;;;;;;0.10;0.10;;;;;;;14.37;82.28;101351.19;5046950;28;20053;-81
2021/06/27 00:41:41;;;;;;;0.20;0.20;;;;;;;14.37;82.05;101353.94;5039316;28;20430;-82
2021/06/27 00:44:21;;;;;;;0.10;0.10;;;;;;;14.40;80.49;101351.44;5041757;28;20065;-81
2021/06/27 00:46:55;;;;;;;0.20;0.20;;;;;;;14.42;80.27;101362.13;5047814;28;20063;-83
2021/06/27 00:49:29;;;;;;;0.20;0.20;;;;;;;14.37;80.46;101349.28;5040850;28;20061;-82
2021/06/27 00:52:03;;;;;;;0.10;0.10;;;;;;;14.41;80.25;101360.47;5043565;28;20045;-82
2021/06/27 00:54:36;;;;;;;0.10;0.10;;;;;;;14.36;80.66;101358.63;5043111;28;20045;-82
2021/06/27 00:57:14;;;;;;;0.20;0.20;;;;;;;14.31;80.91;101353.19;5045840;28;20049;-82
2021/06/27 00:59:48;;;;;;;0.20;0.20;;;;;;;14.32;81.23;101356.72;5061815;28;20052;-83
2021/06/27 01:02:18;;;;;;;0.20;0.20;;;;;;;14.23;82.22;101351.88;5048069;28;20050;-83
2021/06/27 01:04:51;;;;;;;0.10;0.10;;;;;;;14.28;82.10;101353.75;5035990;28;20045;-80
2021/06/27 01:07:25;;;;;;;0.20;0.20;;;;;;;14.23;82.16;101349.13;5048201;28;20496;-82
2021/06/27 01:09:59;;;;;;;0.13;0.13;;;;;;;14.15;81.53;101347.00;5043070;28;20054;-82
2021/06/27 01:12:35;;;;;;;0.20;0.20;;;;;;;14.13;82.45;101349.25;5047499;28;20053;-82
2021/06/27 01:15:10;;;;;;;0.20;0.20;;;;;;;14.20;81.55;101349.72;5047896;28;20049;-83
2021/06/27 01:17:46;;;;;;;0.10;0.10;;;;;;;14.25;81.75;101354.31;5035270;28;20054;-81
2021/06/27 01:20:24;;;;;;;0.17;0.17;;;;;;;14.27;81.61;101347.44;5042100;28;20060;-80
2021/06/27 01:23:01;;;;;;;0.10;0.10;;;;;;;14.26;81.21;101347.75;5033243;28;20041;-81
2021/06/27 01:25:37;;;;;;;0.20;0.20;;;;;;;14.28;81.38;101351.81;5041199;28;20049;-83
2021/06/27 01:28:12;;;;;;;0.20;0.20;;;;;;;14.26;81.17;101343.06;5038496;28;20056;-82
2021/06/27 01:30:46;;;;;;;0.20;0.20;;;;;;;14.20;81.43;101340.69;5045313;28;20046;-82
2021/06/27 01:33:22;;;;;;;0.20;0.20;;;;;;;14.28;81.66;101351.03;5049785;28;20048;-82
2021/06/27 01:35:52;;;;;;;0.20;0.20;;;;;;;14.27;81.64;101344.72;5039969;28;20041;-80
2021/06/27 01:38:27;;;;;;;0.20;0.20;;;;;;;14.26;81.32;101339.53;5046046;28;20053;-82
2021/06/27 01:41:00;;;;;;;0.20;0.20;;;;;;;14.24;81.13;101344.50;5040176;28;20045;-81
2021/06/27 01:43:37;;;;;;;0.20;0.20;;;;;;;14.20;80.76;101351.66;5039007;28;20049;-80
2021/06/27 01:46:10;;;;;;;0.20;0.20;;;;;;;14.15;81.43;101347.00;5038843;28;20046;-83
2021/06/27 01:48:43;;;;;;;0.20;0.20;;;;;;;14.16;81.46;101350.59;5041368;28;20462;-82
2021/06/27 01:51:17;;;;;;;0.20;0.20;;;;;;;14.09;81.17;101351.72;5039957;28;20041;-82
2021/06/27 01:53:57;;;;;;;0.10;0.10;;;;;;;14.08;81.44;101346.53;5042370;28;20052;-82
2021/06/27 01:56:30;;;;;;;0.10;0.10;;;;;;;14.10;81.21;101347.09;5035339;28;20056;-83
2021/06/27 01:59:05;;;;;;;0.20;0.20;;;;;;;14.03;82.29;101341.94;5040070;28;20053;-82
2021/06/27 02:01:40;;;;;;;0.20;0.20;;;;;;;13.95;82.63;101339.81;5045223;28;20056;-82
2021/06/27 02:04:14;;;;;;;0.20;0.20;;;;;;;13.85;83.91;101340.72;5050402;28;20064;-82
2021/06/27 02:06:48;;;;;;;0.10;0.10;;;;;;;13.86;82.46;101328.66;5039398;28;20042;-83
2021/06/27 02:09:26;;;;;;;0.10;0.10;;;;;;;13.89;83.48;101340.94;5040181;28;20927;-80
2021/06/27 02:12:00;;;;;;;0.20;0.20;;;;;;;13.92;83.52;101341.19;5037005;28;20045;-82
2021/06/27 02:14:31;;;;;;;0.20;0.20;;;;;;;13.91;82.90;101334.09;5038028;28;20049;-82
2021/06/27 02:17:05;;;;;;;0.20;0.20;;;;;;;13.95;82.04;101337.06;5045229;28;20045;-83
2021/06/27 02:19:39;;;;;;;0.10;0.10;;;;;;;13.95;83.07;101346.09;5039383;28;20052;-80
2021/06/27 02:22:12;;;;;;;0.20;0.20;;;;;;;13.93;82.96;101342.00;5050259;28;20052;-82
2021/06/27 02:24:42;;;;;;;0.20;0.20;;;;;;;14.01;81.96;101335.13;5038293;28;20049;-83
2021/06/27 02:27:16;;;;;;;0.20;0.20;;;;;;;13.94;82.65;101340.91;5038329;28;20049;-83
2021/06/27 02:29:49;;;;;;;0.20;0.20;;;;;;;13.95;82.95;101328.88;5044125;28;20057;-83
2021/06/27 02:32:24;;;;;;;0.10;0.10;;;;;;;13.94;82.58;101316.28;5041138;28;20041;-82
2021/06/27 02:35:01;;;;;;;0.13;0.13;;;;;;;13.97;82.60;101331.31;5047243;28;20056;-82
2021/06/27 02:37:35;;;;;;;0.20;0.20;;;;;;;13.96;82.71;101314.06;5046659;28;20037;-83
2021/06/27 02:40:12;;;;;;;0.20;0.20;;;;;;;13.91;82.67;101312.19;5042607;28;20295;-83
2021/06/27 02:42:42;;;;;;;0.20;0.20;;;;;;;14.01;83.17;101313.22;5041483;28;20053;-83
2021/06/27 02:45:16;;;;;;;0.20;0.20;;;;;;;14.01;82.50;101316.75;5039298;28;20164;-82
2021/06/27 02:47:49;;;;;;;0.20;0.20;;;;;;;14.04;82.14;101313.44;5038616;28;20247;-82
2021/06/27 02:50:22;;;;;;;0.20;0.20;;;;;;;14.05;82.26;101306.06;5055830;28;20410;-82
2021/06/27 02:52:57;;;;;;;0.20;0.20;;;;;;;14.02;82.28;101310.19;5044082;28;20045;-82
2021/06/27 02:55:33;;;;;;;0.20;0.20;;;;;;;13.95;82.46;101305.03;5046902;28;20407;-82
2021/06/27 02:58:08;;;;;;;0.20;0.20;;;;;;;13.97;83.16;101312.97;5045733;28;20076;-82
2021/06/27 03:00:42;;;;;;;0.10;0.10;;;;;;;13.94;82.54;101305.34;5039300;28;20489;-82
2021/06/27 03:03:21;;;;;;;0.20;0.20;;;;;;;13.93;82.12;101307.28;5039246;28;20485;-81
2021/06/27 03:05:58;;;;;;;0.10;0.10;;;;;;;13.97;81.99;101306.69;5043653;28;20065;-82
2021/06/27 03:08:33;;;;;;;0.20;0.20;;;;;;;13.91;82.19;101303.19;5046520;28;20061;-82
2021/06/27 03:11:09;;;;;;;0.20;0.20;;;;;;;13.92;82.88;101316.56;5036007;28;20045;-81
2021/06/27 03:13:39;;;;;;;0.10;0.10;;;;;;;13.90;83.51;101316.03;5049145;28;20068;-82
2021/06/27 03:16:13;;;;;;;0.13;0.13;;;;;;;13.87;83.57;101315.81;5046820;28;20477;-82
2021/06/27 03:18:43;;;;;;;0.20;0.20;;;;;;;13.94;83.04;101308.06;5042583;28;20049;-82
2021/06/27 03:21:17;;;;;;;0.20;0.20;;;;;;;13.92;82.87;101319.31;5045798;28;20056;-82
2021/06/27 03:23:51;;;;;;;0.20;0.20;;;;;;;13.88;83.55;101325.63;5046497;28;20056;-83
2021/06/27 03:26:25;;;;;;;0.20;0.20;;;;;;;13.88;83.09;101321.00;5037127;28;20049;-81
2021/06/27 03:29:03;;;;;;;0.20;0.20;;;;;;;13.91;82.97;101322.34;5043107;28;20083;-82
2021/06/27 03:31:36;;;;;;;0.10;0.10;;;;;;;13.91;82.50;101312.19;5055651;28;20057;-82
2021/06/27 03:34:09;;;;;;;0.20;0.20;;;;;;;13.85;84.73;101320.72;5064719;28;20136;-82
2021/06/27 03:36:43;;;;;;;0.10;0.10;;;;;;;13.89;83.55;101313.59;5045599;28;20779;-82
2021/06/27 03:39:15;;;;;;;0.20;0.20;;;;;;;13.98;83.35;101313.81;5061929;28;20080;-82
2021/06/27 03:41:52;;;;;;;0.35;0.20;;;;;;;14.00;83.25;101314.31;5034267;28;20064;-81
2021/06/27 03:44:28;;;;;;;0.20;0.20;;;;;;;13.88;84.65;101314.69;5042926;28;20057;-82
2021/06/27 03:47:02;;;;;;;0.20;0.20;;;;;;;14.01;83.49;101315.97;5051661;28;20409;-82
2021/06/27 03:49:35;;;;;;;0.10;0.10;;;;;;;14.04;82.97;101307.16;5038080;28;20056;-82
2021/06/27 03:52:09;;;;;;;0.10;0.10;;;;;;;14.12;82.83;101306.53;5049889;28;20041;-82
2021/06/27 03:54:39;;;;;;;0.20;0.20;;;;;;;14.07;84.87;101317.53;5042974;28;20045;-83
2021/06/27 03:57:14;;;;;;;0.20;0.20;;;;;;;13.98;85.24;101302.84;5043851;28;20045;-83
2021/06/27 03:59:48;;;;;;;0.20;0.20;;;;;;;14.06;85.12;101307.72;5042347;28;20045;-83
2021/06/27 04:02:22;;;;;;;0.20;0.20;;;;;;;14.10;83.81;101308.75;5050133;28;20044;-83
2021/06/27 04:04:55;;;;;;;0.20;0.20;;;;;;;14.18;83.61;101308.09;5045941;28;20053;-83
2021/06/27 04:07:28;;;;;;;0.10;0.10;;;;;;;14.24;83.76;101309.72;5047790;28;20048;-82
2021/06/27 04:10:05;;;;;;;0.10;0.10;;;;;;;14.30;83.50;101299.50;5054400;28;20049;-83
2021/06/27 04:12:39;;;;;;;0.10;0.10;;;;;;;14.44;83.15;101305.94;5048846;28;20044;-82
2021/06/27 04:15:14;;;;;;;0.20;0.20;;;;;;;14.50;84.38;101301.22;5052113;28;20075;-83
2021/06/27 04:17:47;;;;;;;0.47;0.20;;;;;;;14.63;85.31;101300.53;5037346;28;20037;-83
2021/06/27 04:20:25;;;;;;;0.20;0.20;;;;;;;14.76;85.41;101304.53;5041710;28;20350;-83
2021/06/27 04:23:02;;;;;;;0.20;0.20;;;;;;;14.89;85.20;101300.25;5038407;28;20383;-83
2021/06/27 04:25:36;;;;;;;0.10;0.10;;;;;;;15.03;84.76;101303.06;5041347;28;20060;-83
2021/06/27 04:28:13;;;;;;;0.10;0.10;;;;;;;15.18;84.78;101299.31;5050377;28;20054;-82
2021/06/27 04:30:47;;;;;;;0.22;0.22;;;;;;;15.24;84.79;101289.88;5042772;28;20046;-82
2021/06/27 04:33:21;;;;;;;0.10;0.10;;;;;;;15.35;82.43;101298.78;5042575;28;20397;-83
2021/06/27 04:35:54;;;;;;;0.20;0.20;;;;;;;15.53;81.88;101301.81;5052063;28;20037;-83
2021/06/27 04:38:33;;;;;;;0.20;0.20;;;;;;;15.60;82.14;101305.78;5052231;28;20041;-83
2021/06/27 04:41:07;;;;;;;0.20;0.20;;;;;;;15.71;81.10;101314.69;5051609;28;20056;-83
2021/06/27 04:43:42;;;;;;;0.20;0.20;;;;;;;15.78;81.43;101301.41;5058529;28;20060;-82
2021/06/27 04:46:15;;;;;;;0.20;0.20;;;;;;;15.77;81.40;101302.53;5034789;28;20041;-83
2021/06/27 04:48:54;;;;;;;0.10;0.10;;;;;;;15.86;82.03;101301.88;5038849;28;20050;-83
2021/06/27 04:51:22;;;;;;;0.20;0.20;;;;;;;15.89;81.08;101310.31;5043229;28;20053;-83
2021/06/27 04:53:57;;;;;;;0.10;0.10;;;;;;;15.88;80.76;101310.59;5042041;28;20037;-81
2021/06/27 04:56:25;;;;;;;0.10;0.10;;;;;;;15.93;79.77;101314.06;5041750;28;20056;-82
2021/06/27 04:59:04;;;;;;;0.17;0.17;;;;;;;16.02;80.56;101302.41;5038975;28;20520;-82
2021/06/27 05:01:38;;;;;;;0.10;0.10;;;;;;;16.14;80.91;101306.31;5057058;28;20605;-82
2021/06/27 05:04:13;;;;;;;0.10;0.10;;;;;;;16.09;80.19;101298.16;5044099;28;20041;-82
2021/06/27 05:06:46;;;;;;;0.20;0.20;;;;;;;16.34;79.31;101309.81;5043170;28;20056;-82
2021/06/27 05:09:21;;;;;;;0.20;0.20;;;;;;;16.48;79.63;101309.81;5055247;28;20052;-82
2021/06/27 05:11:55;;;;;;;0.20;0.20;;;;;;;16.65;79.61;101304.53;5035710;28;20057;-83
2021/06/27 05:14:24;;;;;;;0.10;0.10;;;;;;;16.70;76.54;101308.28;5033263;28;20045;-83
2021/06/27 05:16:53;;;;;;;0.20;0.20;;;;;;;16.80;78.77;101305.31;5043185;28;20060;-82
2021/06/27 05:19:28;;;;;;;0.10;0.10;;;;;;;16.93;75.61;101309.19;5047117;28;20049;-82
2021/06/27 05:22:01;;;;;;;0.17;0.17;;;;;;;16.98;75.65;101309.09;5037964;28;20072;-82
2021/06/27 05:24:35;;;;;;;0.10;0.10;;;;;;;17.30;76.36;101310.03;5043045;28;20048;-83
2021/06/27 05:27:09;;;;;;;0.10;0.10;;;;;;;17.34;74.88;101306.38;5042037;28;20049;-83
2021/06/27 05:29:47;;;;;;;0.10;0.10;;;;;;;17.38;73.89;101301.06;5047180;28;20049;-83
2021/06/27 05:32:20;;;;;;;0.20;0.20;;;;;;;17.50;74.14;101300.50;5038352;28;20045;-83
2021/06/27 05:34:53;;;;;;;0.20;0.20;;;;;;;17.86;72.50;101302.38;5034209;28;20034;-82
2021/06/27 05:37:28;;;;;;;0.20;0.20;;;;;;;19.21;69.95;101292.06;5036242;28;20045;-82
2021/06/27 05:40:04;;;;;;;0.20;0.20;;;;;;;20.34;64.96;101295.78;5039511;28;20052;-83
2021/06/27 05:42:38;;;;;;;0.10;0.10;;;;;;;19.16;67.23;101294.97;5039570;28;20492;-83
2021/06/27 05:45:13;;;;;;;0.20;0.20;;;;;;;19.40;68.78;101296.44;5063161;28;20091;-83
2021/06/27 05:47:46;;;;;;;0.10;0.10;;;;;;;19.09;71.11;101300.97;5035506;28;20052;-83
2021/06/27 05:50:20;;;;;;;0.10;0.10;;;;;;;18.66;72.00;101310.72;5032294;28;20060;-83
2021/06/27 05:52:53;;;;;;;0.10;0.10;;;;;;;18.43;70.05;101307.22;5037656;28;20052;-82
2021/06/27 05:55:28;;;;;;;0.22;0.20;;;;;;;18.40;71.81;101312.59;5044487;28;20096;-83
2021/06/27 05:58:01;;;;;;;0.10;0.10;;;;;;;18.33;70.89;101310.28;5046606;28;20415;-82
2021/06/27 06:00:35;;;;;;;0.10;0.10;;;;;;;18.27;70.97;101314.28;5046652;28;20052;-83
2021/06/27 06:03:11;;;;;;;0.10;0.10;;;;;;;18.27;72.11;101308.78;5043996;28;20033;-82
2021/06/27 06:05:44;;;;;;;0.15;0.10;;;;;;;18.18;71.24;101312.31;5041604;28;20417;-82
2021/06/27 06:08:17;;;;;;;0.20;0.20;;;;;;;18.04;71.59;101305.28;5034901;28;20496;-83
2021/06/27 06:10:50;;;;;;;0.10;0.10;;;;;;;17.93;71.39;101310.22;5034771;28;20045;-83
2021/06/27 06:13:24;;;;;;;0.10;0.10;;;;;;;17.93;72.04;101318.50;5047194;28;20053;-83
2021/06/27 06:15:58;;;;;;;0.20;0.20;;;;;;;18.04;73.10;101317.09;5042449;28;20041;-83
2021/06/27 06:18:32;;;;;;;0.10;0.10;;;;;;;18.07;72.79;101318.41;5038062;28;20053;-82
2021/06/27 06:21:06;;;;;;;0.20;0.20;;;;;;;18.06;70.98;101331.34;5049197;28;20072;-83
2021/06/27 06:23:40;;;;;;;0.10;0.10;;;;;;;17.96;72.76;101310.41;5047060;28;20049;-82
2021/06/27 06:26:15;;;;;;;0.17;0.17;;;;;;;18.10;72.73;101324.09;5049540;28;20048;-83
2021/06/27 06:28:49;;;;;;;0.20;0.20;;;;;;;18.00;72.25;101327.13;5048851;28;20045;-83
2021/06/27 06:31:19;;;;;;;0.10;0.10;;;;;;;17.88;72.59;101327.66;5041516;28;20060;-83
2021/06/27 06:33:54;;;;;;;0.10;0.10;;;;;;;17.80;72.62;101304.44;5037810;28;20061;-82
2021/06/27 06:36:27;;;;;;;0.10;0.10;;;;;;;18.01;72.07;101309.47;5045021;28;20064;-83
2021/06/27 06:39:03;;;;;;;0.10;0.10;;;;;;;18.29;71.86;101314.81;5037935;28;20056;-83
2021/06/27 06:41:37;;;;;;;0.20;0.20;;;;;;;18.69;69.78;101314.78;5036119;28;20060;-82
2021/06/27 06:44:12;;;;;;;0.20;0.20;;;;;;;18.60;68.54;101312.03;5039722;28;20046;-84
2021/06/27 06:46:47;;;;;;;0.10;0.10;;;;;;;18.66;67.33;101315.44;5046742;28;20049;-83
2021/06/27 06:49:22;;;;;;;0.10;0.10;;;;;;;18.84;67.27;101317.09;5052748;28;20052;-84
2021/06/27 06:51:55;;;;;;;0.10;0.10;;;;;;;19.06;70.24;101315.41;5037013;28;20061;-84
2021/06/27 06:54:29;;;;;;;0.10;0.10;;;;;;;18.98;67.77;101310.69;5033560;28;20046;-83
2021/06/27 06:57:04;;;;;;;0.10;0.10;;;;;;;19.18;68.58;101312.00;5050150;28;20056;-84
2021/06/27 06:59:44;;;;;;;0.10;0.10;;;;;;;19.08;68.42;101321.41;5040649;28;20052;-83
2021/06/27 07:03:09;;;;;;;0.10;0.10;;;;;;;19.41;67.80;101314.63;5043829;28;20060;-83
2021/06/27 07:05:46;;;;;;;0.17;0.17;;;;;;;19.50;66.49;101316.25;5045354;28;20060;-83
2021/06/27 07:08:22;;;;;;;0.20;0.20;;;;;;;19.50;66.76;101310.72;5041000;28;20037;-83
2021/06/27 07:10:58;;;;;;;0.10;0.10;;;;;;;19.38;66.24;101313.31;5035560;28;20053;-84
2021/06/27 07:13:33;;;;;;;0.15;0.15;;;;;;;19.56;67.67;101313.31;5032736;28;20045;-84
2021/06/27 07:16:06;;;;;;;0.15;0.15;;;;;;;19.41;65.95;101312.66;5050924;28;20056;-84
2021/06/27 07:18:41;;;;;;;0.10;0.10;;;;;;;19.47;67.51;101308.63;5043555;28;20049;-84
2021/06/27 07:21:18;;;;;;;0.10;0.10;;;;;;;19.36;68.34;101301.78;5034843;28;20064;-83
2021/06/27 07:23:51;;;;;;;0.20;0.20;;;;;;;19.49;66.60;101311.84;5042681;28;20048;-83
2021/06/27 07:26:25;;;;;;;0.10;0.10;;;;;;;19.32;65.93;101301.63;5040492;28;20056;-84
2021/06/27 07:29:20;;;;;;;0.17;0.17;;;;;;;19.40;67.99;101305.50;5054783;28;20052;-83
2021/06/27 07:31:48;;;;;;;0.15;0.15;;;;;;;19.63;68.31;101305.34;5036031;28;20037;-83
2021/06/27 07:34:25;;;;;;;0.10;0.10;;;;;;;19.73;65.33;101293.97;5037111;28;20038;-83
2021/06/27 07:36:59;;;;;;;0.10;0.10;;;;;;;19.75;61.85;101305.50;5033107;28;20044;-83
2021/06/27 07:39:29;;;;;;;0.10;0.10;;;;;;;19.78;63.74;101304.84;5034773;28;20052;-84
2021/06/27 07:42:02;;;;;;;0.10;0.10;;;;;;;19.70;63.83;101306.47;5042891;28;20076;-84
2021/06/27 07:44:40;;;;;;;0.10;0.10;;;;;;;19.85;65.94;101304.38;5032005;28;20053;-83
2021/06/27 07:47:15;;;;;;;0.10;0.10;;;;;;;19.99;65.51;101293.13;5037414;28;20044;-83
2021/06/27 07:49:44;;;;;;;0.20;0.20;;;;;;;20.15;61.81;101291.47;5041038;28;20393;-85
2021/06/27 07:52:19;;;;;;;0.10;0.10;;;;;;;20.22;62.50;101288.19;5056146;28;20045;-84
2021/06/27 07:54:53;;;;;;;0.13;0.13;;;;;;;20.44;63.20;101291.81;5039184;28;20044;-83
2021/06/27 07:57:27;;;;;;;0.10;0.10;;;;;;;20.21;61.75;101294.84;5051520;28;20064;-83
2021/06/27 08:00:01;;;;;;;0.20;0.20;;;;;;;20.50;63.13;101291.31;5045510;28;20057;-85
2021/06/27 08:02:39;;;;;;;0.10;0.10;;;;;;;20.27;62.55;101301.81;5045927;28;20052;-83
2021/06/27 08:05:17;;;;;;;0.10;0.10;;;;;;;20.21;61.59;101298.41;5035067;28;20058;-83
2021/06/27 08:07:52;;;;;;;0.10;0.10;;;;;;;20.15;66.35;101305.28;5035289;28;20056;-83
2021/06/27 08:10:25;;;;;;;0.10;0.10;;;;;;;20.24;62.24;101296.94;5054555;28;20593;-84
2021/06/27 08:12:58;;;;;;;0.10;0.10;;;;;;;20.46;63.53;101300.63;5048722;28;20056;-83
2021/06/27 08:15:31;;;;;;;0.10;0.10;;;;;;;20.60;64.40;101290.13;5058239;28;20052;-84
2021/06/27 08:18:06;;;;;;;0.10;0.10;;;;;;;20.79;63.79;101286.16;5041286;28;20049;-84
2021/06/27 08:21:05;;;;;;;0.10;0.10;;;;;;;20.84;60.09;101280.41;5041569;28;20054;-85
2021/06/27 08:23:39;;;;;;;0.10;0.10;;;;;;;20.81;60.70;101284.69;5051396;28;20041;-84
2021/06/27 08:26:13;;;;;;;0.13;0.13;;;;;;;20.81;63.00;101286.63;5042967;28;20044;-83
2021/06/27 08:28:46;;;;;;;0.10;0.10;;;;;;;20.79;61.12;101291.69;5041595;28;20516;-84
2021/06/27 08:31:14;;;;;;;0.10;0.10;;;;;;;20.78;61.23;101281.78;5040473;28;20052;-84
2021/06/27 08:33:50;;;;;;;0.10;0.10;;;;;;;20.88;61.63;101287.72;5047879;28;20057;-84
2021/06/27 08:36:22;;;;;;;0.20;0.20;;;;;;;20.97;60.45;101286.84;5045536;28;20049;-84
2021/06/27 08:38:58;;;;;;;0.10;0.10;;;;;;;21.18;62.29;101284.88;5036854;28;20052;-83
2021/06/27 08:41:33;;;;;;;0.10;0.10;;;;;;;21.01;58.52;101258.16;5037784;28;20056;-83
2021/06/27 08:44:02;;;;;;;0.10;0.10;;;;;;;21.36;61.89;101279.22;5043834;28;20049;-84
2021/06/27 08:46:38;;;;;;;0.10;0.10;;;;;;;21.37;61.87;101272.53;5045672;28;20049;-84
2021/06/27 08:49:16;;;;;;;0.10;0.10;;;;;;;21.26;59.70;101271.34;5038837;28;20053;-83
2021/06/27 08:51:56;;;;;;;0.10;0.10;;;;;;;20.95;58.86;101261.47;5039055;28;20067;-83
2021/06/27 08:54:33;;;;;;;0.20;0.20;;;;;;;21.20;62.54;101265.19;5039798;28;20048;-83
2021/06/27 08:57:07;;;;;;;0.20;0.20;;;;;;;21.29;60.92;101257.63;5042391;28;20061;-82
2021/06/27 08:59:45;;;;;;;0.10;0.10;;;;;;;21.01;61.29;101262.91;5034494;28;20060;-82
2021/06/27 09:02:20;;;;;;;0.10;0.10;;;;;;;20.76;61.44;101256.41;5043772;28;20049;-83
2021/06/27 09:04:55;;;;;;;0.10;0.10;;;;;;;21.30;63.09;101267.53;5040628;28;20056;-84
2021/06/27 09:07:30;;;;;;;0.10;0.10;;;;;;;21.50;59.83;101256.78;5038102;28;20053;-82
2021/06/27 09:10:08;;;;;;;0.10;0.10;;;;;;;21.85;61.75;101250.94;5040743;28;20429;-83
2021/06/27 09:12:46;;;;;;;0.10;0.10;;;;;;;21.83;57.33;101265.09;5042125;28;20052;-84
2021/06/27 09:15:42;;;;;;;0.17;0.17;;;;;;;21.86;57.69;101253.34;5043651;28;20061;-84
2021/06/27 09:18:23;;;;;;;0.10;0.10;;;;;;;21.85;58.01;101256.47;5044606;28;20041;-85
2021/06/27 09:21:07;;;;;;;0.10;0.10;;;;;;;22.17;60.80;101251.22;5052309;28;20751;-84
2021/06/27 09:23:38;;;;;;;0.10;0.10;;;;;;;22.12;56.63;101248.66;5034721;28;20052;-82
2021/06/27 09:26:09;;;;;;;0.10;0.10;;;;;;;22.12;57.41;101232.81;5038974;28;20059;-84
2021/06/27 09:28:46;;;;;;;0.20;0.15;;;;;;;22.47;58.62;101246.28;5038768;28;20053;-83
2021/06/27 09:31:36;;;;;;;0.10;0.10;;;;;;;23.04;60.78;101241.66;5035648;28;20033;-85
2021/06/27 09:34:12;;;;;;;0.10;0.10;;;;;;;23.09;58.51;101244.19;5040226;28;20051;-84
2021/06/27 09:36:49;;;;;;;0.10;0.10;;;;;;;22.85;56.78;101255.34;5036821;28;20045;-84
2021/06/27 09:39:27;;;;;;;;;;;;;;;22.35;57.37;101251.81;5034421;28;20041;-84
2021/06/27 09:42:04;;;;;;;0.10;0.10;;;;;;;21.80;57.40;101240.06;5040743;28;19928;-83
2021/06/27 09:45:06;;;;;;;0.10;0.10;;;;;;;21.19;59.84;101253.31;5041607;28;20370;-83
2021/06/27 09:47:39;;;;;;;0.10;0.10;;;;;;;20.98;59.24;101250.53;5041109;28;20057;-82
2021/06/27 09:50:28;;;;;;;0.10;0.10;;;;;;;21.20;60.36;101251.38;5036125;28;20374;-83
2021/06/27 09:53:04;;;;;;;0.10;0.10;;;;;;;21.74;60.27;101254.13;5031924;28;20050;-83
2021/06/27 09:55:39;;;;;;;0.10;0.10;;;;;;;21.83;55.94;101251.25;5040196;28;20057;-84
2021/06/27 09:58:16;;;;;;;0.10;0.10;;;;;;;22.28;56.09;101244.03;5045640;28;20056;-83
2021/06/27 10:00:50;;;;;;;0.10;0.10;;;;;;;22.66;55.92;101242.09;5042031;28;20067;-83
2021/06/27 10:03:23;;;;;;;0.10;0.10;;;;;;;22.44;55.45;101246.94;5043186;28;20037;-84
2021/06/27 10:06:07;;;;;;;0.10;0.10;;;;;;;21.97;56.15;101245.41;5041745;28;20060;-82
2021/06/27 10:08:41;;;;;;;0.20;0.20;;;;;;;21.76;57.48;101245.47;5039238;28;20791;-84
2021/06/27 10:11:18;;;;;;;0.10;0.10;;;;;;;21.57;58.30;101257.88;5057394;28;20053;-85
2021/06/27 10:13:55;;;;;;;0.10;0.10;;;;;;;21.65;59.53;101249.81;5043664;28;20049;-86
2021/06/27 10:16:30;;;;;;;0.10;0.10;;;;;;;21.84;60.15;101243.75;5038985;28;20061;-88
2021/06/27 10:19:26;;;;;;;0.20;0.20;;;;;;;22.51;57.89;101241.66;5052069;28;20144;-88
2021/06/27 10:22:01;;;;;;;0.10;0.10;;;;;;;22.82;56.97;101236.63;5035051;28;20508;-87
2021/06/27 10:24:35;;;;;;;0.40;0.10;;;;;;;22.57;57.07;101236.66;5033937;28;20041;-87
2021/06/27 10:27:09;;;;;;;0.20;0.20;;;;;;;22.09;57.20;101234.31;5035797;28;20394;-87
2021/06/27 10:29:49;;;;;;;0.10;0.10;;;;;;;22.49;56.84;101251.47;5037364;28;20485;-86
2021/06/27 10:32:19;;;;;;;0.10;0.10;;;;;;;22.48;57.13;101247.06;4985491;28;20382;-85
2021/06/27 10:34:54;;;;;;;0.10;0.10;;;;;;;22.09;58.07;101241.84;5042310;28;20070;-86
2021/06/27 10:37:34;;;;;;;0.10;0.10;;;;;;;21.76;58.96;101245.47;5033688;28;20045;-86
2021/06/27 10:40:10;;;;;;;0.10;0.10;;;;;;;21.60;58.73;101242.56;5035201;28;20083;-85
2021/06/27 10:42:56;;;;;;;0.20;0.10;;;;;;;21.84;56.89;101229.91;5031241;28;20104;-87
2021/06/27 10:45:58;;;;;;;0.10;0.10;;;;;;;21.91;56.60;101233.72;5034316;28;20087;-87
2021/06/27 10:48:39;;;;;;;0.20;0.20;;;;;;;21.89;56.34;101238.81;5033866;28;20525;-87
2021/06/27 10:51:22;;;;;;;0.20;0.20;;;;;;;21.67;57.07;101233.69;5033954;28;20052;-86
2021/06/27 10:54:14;;;;;;;0.10;0.10;;;;;;;21.84;59.30;101241.00;5035424;28;20448;-87
2021/06/27 10:57:00;;;;;;;0.10;0.10;;;;;;;22.03;58.47;101229.38;5032264;28;20409;-87
2021/06/27 10:59:56;;;;;;;0.10;0.10;;;;;;;21.75;58.53;101227.25;5037797;28;20057;-87
2021/06/27 11:02:44;;;;;;;0.10;0.10;;;;;;;22.39;58.24;101227.78;5036431;28;21284;-85
2021/06/27 11:05:45;;;;;;;0.10;0.10;;;;;;;22.55;57.02;101227.88;5042387;28;20061;-86
2021/06/27 11:08:36;;;;;;;0.10;0.10;;;;;;;23.17;56.66;101223.00;5054134;28;20045;-86
2021/06/27 11:11:11;;;;;;;0.10;0.10;;;;;;;23.41;55.69;101210.19;5037604;28;20048;-86
2021/06/27 11:13:45;;;;;;;0.10;0.10;;;;;;;23.71;53.59;101209.78;5034209;28;20052;-88
2021/06/27 11:16:21;;;;;;;0.10;0.10;;;;;;;23.59;54.42;101200.34;5035396;28;20045;-87
2021/06/27 11:19:01;;;;;;;0.10;0.10;;;;;;;23.47;54.64;101202.41;5034164;28;20758;-87
2021/06/27 11:21:37;;;;;;;0.10;0.10;;;;;;;22.54;56.38;101206.88;5036926;28;20049;-86
2021/06/27 11:24:15;;;;;;;0.10;0.10;;;;;;;22.36;56.48;101209.88;5036115;28;20060;-90
2021/06/27 11:26:58;;;;;;;0.10;0.10;;;;;;;22.14;59.31;101211.13;5035096;28;20524;-86
2021/06/27 11:29:48;;;;;;;0.10;0.10;;;;;;;22.11;58.03;101209.03;5035456;28;20489;-85
2021/06/27 11:32:53;;;;;;;0.10;0.10;;;;;;;22.49;56.55;101210.66;5017171;28;20601;-86
2021/06/27 11:35:37;;;;;;;0.10;0.10;;;;;;;22.63;58.90;101190.88;5037271;28;20330;-86
2021/06/27 11:38:36;;;;;;;0.10;0.10;;;;;;;23.04;55.82;101197.25;5040115;28;20060;-87
2021/06/27 11:41:13;;;;;;;0.10;0.10;;;;;;;23.20;52.84;101197.34;5032009;28;20378;-86
2021/06/27 11:43:59;;;;;;;0.10;0.10;;;;;;;23.15;53.51;101189.25;5045335;28;20088;-86
2021/06/27 11:46:35;;;;;;;0.10;0.10;;;;;;;22.74;54.19;101199.53;5036749;28;20513;-85
2021/06/27 11:49:11;;;;;;;0.10;0.10;;;;;;;22.24;55.90;101198.75;5036595;28;21206;-86
2021/06/27 11:51:49;;;;;;;0.10;0.10;;;;;;;22.13;57.71;101195.63;5038733;28;20059;-85
2021/06/27 11:54:27;;;;;;;0.10;0.10;;;;;;;22.72;55.89;101204.63;5039408;28;20746;-86
2021/06/27 11:57:05;;;;;;;0.10;0.10;;;;;;;23.12;55.32;101203.84;5035341;28;20057;-84
2021/06/27 11:59:40;;;;;;;0.10;0.10;;;;;;;23.62;56.83;101200.81;5037355;28;21324;-85
2021/06/27 12:02:18;;;;;;;0.10;0.10;;;;;;;23.40;51.34;101186.34;5038726;28;20056;-86
2021/06/27 12:04:53;;;;;;;0.10;0.10;;;;;;;23.99;53.39;101189.47;5036921;28;20488;-85